createdAt,value
2018-06-01T00:00:43.197Z,9.07
2018-06-01T00:03:11.310Z,8.80
2018-06-01T00:05:39.443Z,7.87
2018-06-01T00:08:07.574Z,9.03
2018-06-01T00:10:35.686Z,8.20
2018-06-01T00:13:03.818Z,8.33
2018-06-01T00:15:31.943Z,8.43
2018-06-01T00:18:00.060Z,8.20
2018-06-01T00:20:28.176Z,8.23
2018-06-01T00:22:56.291Z,8.73
2018-06-01T00:25:24.408Z,8.77
2018-06-01T00:27:52.543Z,8.87
2018-06-01T00:30:20.643Z,8.30
2018-06-01T00:32:48.755Z,7.87
2018-06-01T00:35:16.865Z,8.20
2018-06-01T00:37:44.993Z,8.80
2018-06-01T00:40:13.099Z,8.90
2018-06-01T00:42:41.235Z,8.90
2018-06-01T00:45:09.379Z,8.20
2018-06-01T00:47:37.503Z,8.20
2018-06-01T00:50:05.623Z,9.10
2018-06-01T00:52:33.754Z,9.20
2018-06-01T00:55:13.698Z,10.23
2018-06-01T00:57:41.838Z,9.10
2018-06-01T01:00:09.945Z,9.27
2018-06-01T01:02:38.071Z,9.53
2018-06-01T01:05:06.272Z,8.63
2018-06-01T01:07:34.393Z,9.53
2018-06-01T01:10:02.528Z,8.90
2018-06-01T01:12:30.655Z,9.73
2018-06-01T01:14:58.756Z,11.47
2018-06-01T01:17:27.117Z,11.30
2018-06-01T01:19:55.253Z,10.63
2018-06-01T01:22:23.380Z,10.67
2018-06-01T01:24:51.997Z,11.13
2018-06-01T01:27:20.165Z,10.73
2018-06-01T01:29:48.291Z,9.77
2018-06-01T01:32:16.431Z,10.63
2018-06-01T01:34:44.555Z,9.40
2018-06-01T01:37:12.667Z,10.30
2018-06-01T01:39:40.841Z,10.20
2018-06-01T01:42:08.966Z,9.60
2018-06-01T01:44:37.104Z,10.20
2018-06-01T01:47:05.242Z,10.33
2018-06-01T01:49:33.360Z,9.70
2018-06-01T01:52:01.487Z,9.47
2018-06-01T01:54:29.627Z,10.30
2018-06-01T01:56:57.758Z,9.70
2018-06-01T01:59:25.863Z,9.90
2018-06-01T02:01:54.020Z,11.30
2018-06-01T02:04:22.137Z,10.40
2018-06-01T02:06:50.259Z,11.00
2018-06-01T02:09:18.414Z,10.07
2018-06-01T02:11:46.530Z,11.27
2018-06-01T02:14:14.652Z,10.57
2018-06-01T02:16:42.794Z,9.87
2018-06-01T02:19:10.915Z,10.57
2018-06-01T02:21:39.041Z,11.40
2018-06-01T02:24:07.179Z,11.30
2018-06-01T02:26:35.297Z,10.30
2018-06-01T02:29:03.429Z,11.07
2018-06-01T02:31:31.567Z,10.40
2018-06-01T02:33:59.697Z,10.20
2018-06-01T02:36:27.845Z,10.50
2018-06-01T02:38:56.172Z,10.73
2018-06-01T02:41:24.288Z,10.73
2018-06-01T02:43:52.411Z,11.50
2018-06-01T02:46:20.547Z,10.83
2018-06-01T02:48:48.733Z,11.10
2018-06-01T02:51:16.865Z,11.17
2018-06-01T02:53:44.983Z,10.80
2018-06-01T02:56:13.097Z,11.40
2018-06-01T02:58:41.230Z,10.97
2018-06-01T03:01:09.422Z,10.70
2018-06-01T03:03:37.565Z,10.63
2018-06-01T03:06:05.695Z,11.77
2018-06-01T03:08:33.831Z,11.43
2018-06-01T03:11:01.943Z,10.50
2018-06-01T03:13:30.072Z,11.33
2018-06-01T03:15:58.247Z,10.80
2018-06-01T03:18:26.369Z,11.27
2018-06-01T03:20:54.486Z,11.03
2018-06-01T03:23:22.602Z,11.87
2018-06-01T03:25:50.722Z,11.90
2018-06-01T03:28:18.846Z,12.27
2018-06-01T03:30:46.990Z,10.93
2018-06-01T03:33:15.113Z,12.07
2018-06-01T03:35:43.293Z,10.87
2018-06-01T03:38:11.442Z,11.60
2018-06-01T03:40:39.563Z,12.20
2018-06-01T03:43:07.689Z,12.40
2018-06-01T03:45:35.818Z,12.40
2018-06-01T03:48:03.930Z,12.00
2018-06-01T03:50:32.083Z,11.77
2018-06-01T03:53:00.219Z,11.87
2018-06-01T03:55:28.335Z,11.20
2018-06-01T03:57:56.465Z,12.73
2018-06-01T04:00:24.597Z,12.43
2018-06-01T04:02:52.771Z,11.10
2018-06-01T04:05:20.853Z,11.03
2018-06-01T04:07:48.994Z,12.53
2018-06-01T04:10:17.132Z,10.70
2018-06-01T04:12:45.249Z,11.83
2018-06-01T04:15:13.571Z,11.00
2018-06-01T04:17:41.687Z,10.77
2018-06-01T04:20:09.845Z,11.30
2018-06-01T04:22:37.961Z,11.93
2018-06-01T04:25:06.140Z,11.77
2018-06-01T04:27:34.294Z,13.27
2018-06-01T04:30:02.439Z,11.97
2018-06-01T04:32:30.560Z,11.90
2018-06-01T04:34:58.668Z,12.80
2018-06-01T04:37:26.854Z,12.13
2018-06-01T04:39:54.979Z,11.67
2018-06-01T04:42:23.144Z,10.90
2018-06-01T04:44:52.180Z,10.40
2018-06-01T04:47:20.303Z,11.57
2018-06-01T04:49:48.429Z,10.50
2018-06-01T04:52:16.570Z,11.47
2018-06-01T04:54:44.703Z,10.97
2018-06-01T04:57:12.836Z,11.10
2018-06-01T04:59:40.980Z,11.33
2018-06-01T05:02:09.098Z,10.73
2018-06-01T05:04:37.222Z,9.80
2018-06-01T05:07:05.368Z,9.73
2018-06-01T05:09:33.518Z,9.93
2018-06-01T05:12:01.666Z,10.40
2018-06-01T05:14:29.801Z,10.13
2018-06-01T05:16:57.924Z,11.23
2018-06-01T05:19:26.047Z,11.90
2018-06-01T05:21:54.197Z,11.20
2018-06-01T05:24:22.315Z,11.37
2018-06-01T05:26:50.429Z,11.00
2018-06-01T05:29:18.576Z,11.33
2018-06-01T05:31:46.714Z,9.50
2018-06-01T05:34:14.866Z,10.73
2018-06-01T05:36:43.008Z,11.03
2018-06-01T05:39:13.525Z,11.27
2018-06-01T05:41:41.652Z,12.37
2018-06-01T05:44:09.785Z,12.03
2018-06-01T05:46:37.930Z,12.03
2018-06-01T05:49:06.144Z,11.17
2018-06-01T05:51:34.260Z,10.70
2018-06-01T05:54:02.400Z,10.93
2018-06-01T05:56:30.547Z,11.40
2018-06-01T05:58:58.684Z,11.77
2018-06-01T06:01:26.817Z,11.27
2018-06-01T06:03:54.951Z,10.70
2018-06-01T06:06:23.114Z,11.00
2018-06-01T06:08:51.220Z,10.60
2018-06-01T06:11:19.330Z,9.00
2018-06-01T06:13:47.468Z,9.93
2018-06-01T06:16:15.601Z,10.40
2018-06-01T06:18:43.720Z,10.50
2018-06-01T06:21:11.854Z,9.97
2018-06-01T06:23:39.979Z,10.30
2018-06-01T06:26:08.129Z,9.77
2018-06-01T06:28:36.616Z,8.67
2018-06-01T06:31:04.734Z,10.77
2018-06-01T06:33:32.860Z,8.83
2018-06-01T06:36:00.990Z,9.03
2018-06-01T06:38:29.112Z,9.00
2018-06-01T06:40:57.228Z,7.40
2018-06-01T06:43:25.368Z,9.07
2018-06-01T06:45:53.479Z,7.57
2018-06-01T06:48:21.640Z,8.97
2018-06-01T06:50:49.784Z,9.00
2018-06-01T06:53:17.894Z,7.97
2018-06-01T06:55:46.006Z,7.63
2018-06-01T06:58:14.193Z,7.53
2018-06-01T07:00:42.300Z,8.07
2018-06-01T07:03:10.432Z,7.77
2018-06-01T07:05:38.602Z,8.20
2018-06-01T07:08:06.710Z,8.03
2018-06-01T07:10:34.874Z,7.63
2018-06-01T07:13:02.972Z,6.80
2018-06-01T07:15:31.089Z,7.60
2018-06-01T07:17:59.205Z,8.07
2018-06-01T07:20:27.331Z,8.40
2018-06-01T07:22:55.454Z,8.80
2018-06-01T07:25:23.630Z,8.83
2018-06-01T07:27:51.760Z,10.00
2018-06-01T07:30:19.880Z,9.57
2018-06-01T07:32:48.020Z,9.27
2018-06-01T07:35:16.145Z,7.30
2018-06-01T07:37:44.279Z,9.13
2018-06-01T07:40:12.373Z,8.60
2018-06-01T07:42:40.517Z,8.00
2018-06-01T07:45:08.637Z,8.43
2018-06-01T07:47:36.772Z,8.77
2018-06-01T07:50:04.940Z,8.90
2018-06-01T07:52:33.069Z,8.60
2018-06-01T07:55:01.201Z,9.00
2018-06-01T07:57:29.339Z,9.33
2018-06-01T07:59:57.450Z,8.80
2018-06-01T08:02:25.571Z,8.00
2018-06-01T08:04:53.683Z,7.73
2018-06-01T08:07:21.792Z,8.10
2018-06-01T08:09:50.346Z,8.00
2018-06-01T08:12:18.563Z,7.60
2018-06-01T08:14:46.718Z,7.50
2018-06-01T08:17:14.827Z,6.53
2018-06-01T08:19:42.949Z,6.80
2018-06-01T08:22:11.059Z,6.57
2018-06-01T08:24:39.170Z,7.37
2018-06-01T08:27:07.338Z,6.73
2018-06-01T08:29:35.470Z,7.40
2018-06-01T08:32:03.584Z,7.40
2018-06-01T08:34:31.717Z,5.97
2018-06-01T08:36:59.825Z,6.97
2018-06-01T08:39:27.971Z,6.70
2018-06-01T08:41:56.619Z,6.40
2018-06-01T08:44:24.727Z,5.53
2018-06-01T08:46:52.834Z,6.10
2018-06-01T08:49:20.967Z,6.10
2018-06-01T08:51:49.084Z,6.37
2018-06-01T08:54:17.186Z,5.90
2018-06-01T08:56:45.676Z,5.00
2018-06-01T08:59:14.706Z,5.23
2018-06-01T09:01:44.672Z,6.60
2018-06-01T09:04:12.861Z,7.07
2018-06-01T09:06:40.985Z,6.37
2018-06-01T09:09:09.112Z,6.40
2018-06-01T09:11:37.306Z,6.17
2018-06-01T09:14:05.422Z,6.37
2018-06-01T09:16:33.544Z,7.00
2018-06-01T09:19:01.665Z,6.43
2018-06-01T09:21:29.821Z,7.23
2018-06-01T09:23:57.949Z,8.13
2018-06-01T09:26:26.121Z,6.00
2018-06-01T09:28:54.277Z,7.47
2018-06-01T09:31:22.409Z,6.67
2018-06-01T09:33:50.552Z,6.43
2018-06-01T09:36:18.706Z,6.23
2018-06-01T09:38:46.871Z,6.60
2018-06-01T09:41:15.032Z,6.80
2018-06-01T09:43:43.135Z,6.70
2018-06-01T09:46:11.303Z,7.07
2018-06-01T09:48:39.427Z,6.07
2018-06-01T09:51:07.579Z,7.40
2018-06-01T09:53:35.722Z,6.77
2018-06-01T09:56:03.859Z,7.20
2018-06-01T09:58:32.145Z,6.40
2018-06-01T10:01:00.302Z,7.47
2018-06-01T10:03:28.479Z,6.77
2018-06-01T10:05:56.592Z,7.63
2018-06-01T10:08:24.731Z,6.90
2018-06-01T10:10:52.865Z,6.33
2018-06-01T10:13:21.063Z,7.27
2018-06-01T10:15:49.175Z,7.97
2018-06-01T10:18:17.371Z,6.90
2018-06-01T10:20:45.477Z,7.27
2018-06-01T10:23:14.666Z,6.80
2018-06-01T10:25:42.803Z,7.27
2018-06-01T10:28:10.914Z,6.60
2018-06-01T10:30:39.103Z,8.00
2018-06-01T10:33:07.665Z,7.07
2018-06-01T10:35:35.809Z,9.53
2018-06-01T10:38:03.965Z,8.80
2018-06-01T10:40:32.088Z,7.00
2018-06-01T10:43:00.202Z,8.17
2018-06-01T10:45:28.338Z,9.03
2018-06-01T10:47:56.482Z,9.30
2018-06-01T10:50:30.561Z,10.03
2018-06-01T10:52:58.719Z,9.17
2018-06-01T10:55:26.850Z,9.70
2018-06-01T10:57:55.039Z,11.27
2018-06-01T11:00:23.195Z,9.57
2018-06-01T11:02:51.346Z,8.83
2018-06-01T11:05:19.517Z,9.30
2018-06-01T11:07:47.667Z,9.80
2018-06-01T11:10:15.794Z,9.50
2018-06-01T11:12:43.920Z,9.53
2018-06-01T11:15:13.050Z,8.70
2018-06-01T11:17:41.186Z,7.53
2018-06-01T11:20:09.299Z,8.47
2018-06-01T11:22:38.070Z,9.23
2018-06-01T11:25:06.279Z,8.63
2018-06-01T11:27:34.395Z,7.50
2018-06-01T11:30:02.590Z,8.33
2018-06-01T11:32:30.755Z,9.90
2018-06-01T11:34:58.865Z,10.10
2018-06-01T11:37:27.043Z,9.00
2018-06-01T11:39:55.246Z,9.00
2018-06-01T11:42:23.448Z,8.77
2018-06-01T11:44:51.633Z,10.00
2018-06-01T11:47:19.779Z,9.23
2018-06-01T11:49:47.980Z,9.33
2018-06-01T11:52:16.209Z,8.80
2018-06-01T11:54:44.355Z,8.37
2018-06-01T11:57:13.421Z,8.10
2018-06-01T11:59:41.610Z,7.63
2018-06-01T12:02:09.789Z,7.00
2018-06-01T12:04:37.922Z,8.23
2018-06-01T12:07:06.199Z,8.13
2018-06-01T12:09:37.260Z,9.60
2018-06-01T12:12:05.518Z,6.40
2018-06-01T12:14:36.208Z,7.00
2018-06-01T12:17:04.668Z,7.73
2018-06-01T12:19:32.835Z,11.03
2018-06-01T12:22:01.363Z,10.90
2018-06-01T12:24:29.499Z,7.47
2018-06-01T12:26:57.616Z,6.70
2018-06-01T12:29:25.819Z,7.40
2018-06-01T12:31:53.978Z,7.23
2018-06-01T12:34:22.147Z,6.27
2018-06-01T12:36:50.374Z,6.00
2018-06-01T12:39:18.567Z,6.00
2018-06-01T12:41:46.716Z,6.67
2018-06-01T12:44:14.879Z,6.30
2018-06-01T12:46:43.002Z,6.67
2018-06-01T12:49:11.143Z,6.07
2018-06-01T12:51:39.292Z,5.77
2018-06-01T12:54:07.514Z,6.10
2018-06-01T12:56:35.580Z,6.73
2018-06-01T12:59:03.739Z,6.60
2018-06-01T13:01:31.869Z,6.23
2018-06-01T13:03:59.979Z,5.97
2018-06-01T13:06:28.155Z,6.63
2018-06-01T13:08:56.320Z,7.53
2018-06-01T13:11:24.433Z,7.23
2018-06-01T13:13:52.636Z,7.47
2018-06-01T13:16:20.994Z,7.77
2018-06-01T13:18:49.106Z,7.50
2018-06-01T13:21:17.304Z,6.33
2018-06-01T13:23:45.443Z,6.17
2018-06-01T13:26:13.545Z,6.50
2018-06-01T13:28:41.687Z,6.20
2018-06-01T13:31:09.835Z,5.87
2018-06-01T13:33:37.948Z,6.50
2018-06-01T13:36:06.112Z,6.50
2018-06-01T13:38:34.221Z,6.03
2018-06-01T13:41:02.335Z,6.60
2018-06-01T13:43:30.566Z,6.10
2018-06-01T13:45:59.505Z,5.80
2018-06-01T13:48:27.703Z,5.70
2018-06-01T13:50:55.824Z,5.70
2018-06-01T13:53:24.001Z,5.27
2018-06-01T13:55:52.116Z,5.50
2018-06-01T13:58:20.306Z,4.43
2018-06-01T14:00:48.426Z,4.97
2018-06-01T14:03:16.574Z,5.90
2018-06-01T14:05:44.712Z,5.80
2018-06-01T14:08:12.847Z,5.43
2018-06-01T14:10:40.953Z,5.23
2018-06-01T14:13:09.106Z,5.60
2018-06-01T14:15:37.282Z,5.57
2018-06-01T14:18:05.439Z,5.93
2018-06-01T14:20:33.566Z,5.30
2018-06-01T14:23:01.690Z,5.73
2018-06-01T14:25:29.852Z,4.10
2018-06-01T14:27:59.023Z,5.57
2018-06-01T14:30:27.135Z,5.53
2018-06-01T14:32:55.260Z,5.47
2018-06-01T14:35:23.415Z,5.20
2018-06-01T14:37:51.542Z,5.07
2018-06-01T14:40:19.680Z,5.37
2018-06-01T14:42:48.514Z,5.17
2018-06-01T14:45:16.668Z,5.00
2018-06-01T14:47:44.772Z,5.20
2018-06-01T14:50:12.897Z,5.30
2018-06-01T14:52:41.021Z,4.93
2018-06-01T14:55:09.136Z,4.90
2018-06-01T14:57:37.267Z,5.47
2018-06-01T15:00:05.410Z,4.83
2018-06-01T15:02:33.505Z,4.27
2018-06-01T15:05:01.676Z,5.13
2018-06-01T15:07:30.723Z,4.77
2018-06-01T15:09:58.844Z,5.80
2018-06-01T15:12:27.007Z,4.67
2018-06-01T15:14:55.281Z,5.40
2018-06-01T15:17:23.377Z,5.73
2018-06-01T15:19:51.562Z,5.90
2018-06-01T15:22:19.677Z,5.97
2018-06-01T15:24:47.818Z,4.63
2018-06-01T15:27:15.972Z,6.47
2018-06-01T15:29:44.108Z,5.93
2018-06-01T15:32:12.242Z,5.40
2018-06-01T15:34:40.384Z,5.50
2018-06-01T15:37:08.499Z,5.30
2018-06-01T15:39:36.647Z,6.00
2018-06-01T15:42:04.772Z,6.57
2018-06-01T15:44:32.887Z,5.23
2018-06-01T15:47:01.036Z,6.57
2018-06-01T15:49:29.188Z,6.03
2018-06-01T15:51:57.304Z,5.50
2018-06-01T15:54:25.463Z,5.07
2018-06-01T15:56:53.626Z,5.20
2018-06-01T15:59:21.770Z,5.37
2018-06-01T16:01:50.907Z,4.80
2018-06-01T16:04:19.051Z,5.50
2018-06-01T16:06:47.180Z,6.47
2018-06-01T16:09:15.295Z,6.07
2018-06-01T16:11:43.436Z,6.60
2018-06-01T16:14:11.588Z,7.20
2018-06-01T16:16:39.763Z,6.20
2018-06-01T16:19:07.898Z,5.90
2018-06-01T16:21:36.039Z,6.50
2018-06-01T16:24:04.161Z,6.40
2018-06-01T16:26:32.323Z,6.50
2018-06-01T16:29:00.828Z,5.63
2018-06-01T16:31:28.960Z,5.27
2018-06-01T16:33:57.112Z,5.50
2018-06-01T16:36:25.247Z,4.83
2018-06-01T16:38:53.356Z,5.60
2018-06-01T16:41:21.567Z,5.70
2018-06-01T16:43:49.704Z,5.17
2018-06-01T16:46:17.840Z,5.37
2018-06-01T16:48:46.068Z,5.33
2018-06-01T16:51:14.184Z,5.10
2018-06-01T16:53:42.345Z,4.83
2018-06-01T16:56:10.482Z,4.77
2018-06-01T16:58:38.624Z,4.80
2018-06-01T17:01:06.775Z,4.90
2018-06-01T17:03:34.915Z,4.83
2018-06-01T17:06:03.031Z,6.23
2018-06-01T17:08:31.191Z,5.20
2018-06-01T17:10:59.310Z,5.60
2018-06-01T17:13:27.446Z,6.20
2018-06-01T17:15:55.573Z,5.87
2018-06-01T17:18:23.717Z,5.07
2018-06-01T17:20:51.848Z,5.40
2018-06-01T17:23:19.989Z,5.73
2018-06-01T17:25:48.185Z,6.23
2018-06-01T17:28:16.347Z,6.03
2018-06-01T17:30:44.478Z,6.40
2018-06-01T17:33:12.651Z,5.83
2018-06-01T17:35:40.808Z,5.87
2018-06-01T17:38:08.920Z,6.10
2018-06-01T17:40:37.036Z,5.93
2018-06-01T17:43:05.190Z,5.60
2018-06-01T17:45:33.364Z,5.63
2018-06-01T17:48:01.479Z,6.27
2018-06-01T17:50:29.593Z,6.40
2018-06-01T17:52:57.717Z,6.83
2018-06-01T17:55:25.931Z,6.40
2018-06-01T17:57:54.072Z,6.70
2018-06-01T18:00:22.204Z,7.33
2018-06-01T18:02:50.346Z,6.40
2018-06-01T18:05:18.476Z,6.90
2018-06-01T18:07:46.625Z,6.40
2018-06-01T18:10:14.795Z,7.00
2018-06-01T18:12:42.901Z,7.20
2018-06-01T18:15:11.023Z,7.17
2018-06-01T18:17:39.195Z,7.33
2018-06-01T18:20:07.304Z,6.97
2018-06-01T18:22:35.492Z,7.83
2018-06-01T18:25:03.581Z,7.30
2018-06-01T18:27:31.702Z,7.77
2018-06-01T18:29:59.810Z,7.10
2018-06-01T18:32:27.953Z,7.43
2018-06-01T18:34:56.071Z,8.93
2018-06-01T18:37:24.215Z,7.27
2018-06-01T18:39:53.548Z,8.20
2018-06-01T18:42:21.720Z,7.57
2018-06-01T18:44:49.850Z,7.80
2018-06-01T18:47:17.974Z,6.20
2018-06-01T18:49:46.074Z,8.40
2018-06-01T18:52:14.219Z,9.10
2018-06-01T18:54:42.400Z,8.43
2018-06-01T18:57:10.527Z,8.40
2018-06-01T18:59:38.637Z,8.00
2018-06-01T19:02:06.784Z,7.00
2018-06-01T19:04:34.901Z,8.20
2018-06-01T19:07:03.005Z,7.67
2018-06-01T19:09:31.878Z,7.67
2018-06-01T19:12:00.000Z,7.53
2018-06-01T19:14:28.125Z,7.80
2018-06-01T19:16:56.275Z,8.03
2018-06-01T19:19:24.391Z,8.00
2018-06-01T19:21:52.530Z,7.53
2018-06-01T19:24:20.670Z,7.40
2018-06-01T19:26:48.789Z,7.57
2018-06-01T19:29:16.913Z,7.73
2018-06-01T19:31:45.042Z,8.37
2018-06-01T19:34:13.170Z,8.40
2018-06-01T19:36:41.280Z,8.57
2018-06-01T19:39:09.425Z,9.63
2018-06-01T19:41:37.550Z,9.43
2018-06-01T19:44:05.693Z,9.33
2018-06-01T19:46:33.811Z,8.90
2018-06-01T19:49:01.935Z,10.03
2018-06-01T19:51:30.064Z,9.30
2018-06-01T19:53:58.204Z,9.93
2018-06-01T19:56:26.337Z,9.30
2018-06-01T19:58:54.602Z,9.73
2018-06-01T20:01:22.836Z,10.17
2018-06-01T20:03:50.978Z,10.70
2018-06-01T20:06:19.101Z,10.87
2018-06-01T20:08:47.229Z,10.10
2018-06-01T20:11:15.382Z,10.50
2018-06-01T20:13:43.497Z,11.20
2018-06-01T20:16:11.642Z,22.67
2018-06-01T20:18:39.787Z,11.57
2018-06-01T20:21:07.977Z,10.53
2018-06-01T20:23:36.116Z,10.60
2018-06-01T20:26:04.273Z,10.90
2018-06-01T20:28:32.390Z,10.70
2018-06-01T20:31:00.555Z,10.43
2018-06-01T20:33:28.673Z,10.63
2018-06-01T20:35:56.807Z,10.90
2018-06-01T20:38:24.946Z,11.10
2018-06-01T20:40:53.074Z,11.53
2018-06-01T20:43:21.201Z,10.43
2018-06-01T20:45:49.347Z,11.27
2018-06-01T20:48:17.470Z,11.53
2018-06-01T20:50:45.601Z,11.07
2018-06-01T20:53:13.747Z,11.93
2018-06-01T20:55:41.862Z,11.63
2018-06-01T20:58:09.998Z,12.47
2018-06-01T21:00:38.138Z,14.07
2018-06-01T21:03:06.294Z,14.43
2018-06-01T21:05:34.440Z,14.00
2018-06-01T21:08:02.559Z,12.83
2018-06-01T21:10:30.671Z,11.90
2018-06-01T21:12:58.787Z,11.30
2018-06-01T21:15:26.924Z,12.90
2018-06-01T21:17:55.049Z,11.50
2018-06-01T21:20:23.166Z,12.87
2018-06-01T21:22:51.310Z,12.43
2018-06-01T21:25:19.442Z,11.60
2018-06-01T21:27:47.579Z,12.27
2018-06-01T21:30:15.735Z,11.67
2018-06-01T21:32:43.857Z,13.00
2018-06-01T21:35:11.997Z,12.47
2018-06-01T21:37:40.123Z,12.80
2018-06-01T21:40:08.247Z,11.40
2018-06-01T21:42:36.384Z,12.00
2018-06-01T21:45:04.528Z,11.37
2018-06-01T21:47:32.654Z,14.60
2018-06-01T21:50:00.802Z,12.20
2018-06-01T21:52:28.962Z,12.37
2018-06-01T21:54:57.095Z,12.60
2018-06-01T21:57:25.233Z,12.87
2018-06-01T21:59:53.380Z,11.77
2018-06-01T22:02:21.511Z,12.17
2018-06-01T22:04:49.687Z,11.77
2018-06-01T22:07:17.823Z,12.53
2018-06-01T22:09:46.071Z,11.07
2018-06-01T22:12:14.150Z,12.03
2018-06-01T22:14:43.356Z,11.93
2018-06-01T22:17:11.491Z,12.83
2018-06-01T22:19:39.777Z,10.77
2018-06-01T22:22:07.931Z,10.83
2018-06-01T22:24:36.237Z,10.67
2018-06-01T22:27:04.375Z,11.00
2018-06-01T22:29:32.562Z,11.70
2018-06-01T22:32:00.701Z,9.73
2018-06-01T22:34:28.834Z,10.70
2018-06-01T22:36:56.976Z,11.20
2018-06-01T22:39:25.135Z,11.33
2018-06-01T22:41:53.258Z,10.57
2018-06-01T22:44:21.387Z,9.80
2018-06-01T22:46:49.544Z,10.57
2018-06-01T22:49:17.659Z,10.43
2018-06-01T22:51:45.798Z,10.10
2018-06-01T22:54:13.934Z,10.87
2018-06-01T22:56:42.058Z,10.90
2018-06-01T22:59:10.193Z,10.67
2018-06-01T23:01:38.329Z,11.03
2018-06-01T23:04:06.447Z,10.87
2018-06-01T23:06:34.589Z,9.80
2018-06-01T23:09:02.713Z,9.00
2018-06-01T23:11:30.833Z,10.13
2018-06-01T23:13:58.957Z,9.50
2018-06-01T23:16:27.082Z,9.43
2018-06-01T23:18:55.192Z,8.40
2018-06-01T23:21:23.315Z,9.90
2018-06-01T23:23:51.467Z,9.70
2018-06-01T23:26:19.606Z,9.90
2018-06-01T23:28:47.765Z,9.13
2018-06-01T23:31:15.869Z,8.83
2018-06-01T23:33:43.982Z,8.83
2018-06-01T23:36:12.134Z,8.13
2018-06-01T23:38:40.254Z,9.80
2018-06-01T23:41:08.439Z,9.33
2018-06-01T23:43:36.569Z,9.30
2018-06-01T23:46:04.693Z,10.13
2018-06-01T23:48:32.915Z,10.23
2018-06-01T23:51:01.049Z,9.90
2018-06-01T23:53:29.197Z,10.17
2018-06-01T23:55:57.344Z,9.60
2018-06-01T23:58:25.532Z,10.37
